createdAt,value
2017-07-06T00:00:52.407Z,8.63
2017-07-06T00:03:21.459Z,8.73
2017-07-06T00:05:49.733Z,9.50
2017-07-06T00:08:18.028Z,11.68
2017-07-06T00:10:46.308Z,11.85
2017-07-06T00:13:14.599Z,9.20
2017-07-06T00:15:42.872Z,8.50
2017-07-06T00:18:11.169Z,10.00
2017-07-06T00:20:40.212Z,10.07
2017-07-06T00:23:08.508Z,9.57
2017-07-06T00:25:36.792Z,11.30
2017-07-06T00:28:05.061Z,8.23
2017-07-06T00:30:33.355Z,9.07
2017-07-06T00:33:01.635Z,7.62
2017-07-06T00:35:29.926Z,9.02
2017-07-06T00:37:58.968Z,12.23
2017-07-06T00:40:27.270Z,9.45
2017-07-06T00:42:55.545Z,12.65
2017-07-06T00:45:23.844Z,13.57
2017-07-06T00:47:52.889Z,11.75
2017-07-06T00:50:21.187Z,9.43
2017-07-06T00:52:49.470Z,10.93
2017-07-06T00:55:17.780Z,8.93
2017-07-06T00:57:46.823Z,11.60
2017-07-06T01:03:15.136Z,9.52
2017-07-06T01:05:43.435Z,10.18
2017-07-06T01:08:11.711Z,8.40
2017-07-06T01:10:39.986Z,9.27
2017-07-06T01:13:08.269Z,9.30
2017-07-06T01:15:36.543Z,11.40
2017-07-06T01:18:04.837Z,10.48
2017-07-06T01:20:33.878Z,9.35
2017-07-06T01:23:02.155Z,9.65
2017-07-06T01:25:30.428Z,13.75
2017-07-06T01:27:58.725Z,9.77
2017-07-06T01:30:26.994Z,11.40
2017-07-06T01:32:55.290Z,12.82
2017-07-06T01:35:23.565Z,8.93
2017-07-06T01:37:51.842Z,9.63
2017-07-06T01:40:20.128Z,8.20
2017-07-06T01:42:48.401Z,9.07
2017-07-06T01:45:16.683Z,9.15
2017-07-06T01:47:44.960Z,7.62
2017-07-06T01:50:13.247Z,9.50
2017-07-06T01:52:41.515Z,10.00
2017-07-06T01:55:09.805Z,8.93
2017-07-06T01:57:38.077Z,9.27
2017-07-06T02:00:06.371Z,10.50
2017-07-06T02:02:35.410Z,10.20
2017-07-06T02:05:03.718Z,11.73
2017-07-06T02:07:31.992Z,10.40
2017-07-06T02:10:00.255Z,9.30
2017-07-06T02:12:28.541Z,8.05
2017-07-06T02:14:56.807Z,9.07
2017-07-06T02:17:25.092Z,8.18
2017-07-06T02:19:53.372Z,8.13
2017-07-06T02:22:21.671Z,8.15
2017-07-06T02:24:49.944Z,10.43
2017-07-06T02:27:19.010Z,10.90
2017-07-06T02:29:47.288Z,10.55
2017-07-06T02:32:15.605Z,11.18
2017-07-06T02:34:44.648Z,8.98
2017-07-06T02:37:12.953Z,8.45
2017-07-06T02:39:41.229Z,10.85
2017-07-06T02:42:09.491Z,9.23
2017-07-06T02:44:37.775Z,8.88
2017-07-06T02:47:06.091Z,9.48
2017-07-06T02:49:35.168Z,8.15
2017-07-06T02:52:03.439Z,13.50
2017-07-06T02:54:31.730Z,8.68
2017-07-06T02:57:00.000Z,8.98
2017-07-06T02:59:28.341Z,12.32
2017-07-06T03:01:56.617Z,8.38
2017-07-06T03:04:24.928Z,8.73
2017-07-06T03:06:53.201Z,10.15
2017-07-06T03:09:21.469Z,8.93
2017-07-06T03:11:49.761Z,11.40
2017-07-06T03:14:18.047Z,10.88
2017-07-06T03:16:47.101Z,9.95
2017-07-06T03:19:15.376Z,9.35
2017-07-06T03:21:43.700Z,12.02
2017-07-06T03:24:12.744Z,12.25
2017-07-06T03:26:41.029Z,9.73
2017-07-06T03:29:09.304Z,11.60
2017-07-06T03:31:37.610Z,10.90
2017-07-06T03:34:05.875Z,11.57
2017-07-06T03:36:34.182Z,10.10
2017-07-06T03:39:02.447Z,11.60
2017-07-06T03:41:30.715Z,11.75
2017-07-06T03:43:59.012Z,14.68
2017-07-06T03:46:28.055Z,11.48
2017-07-06T03:48:56.363Z,21.70
2017-07-06T03:51:24.628Z,12.18
2017-07-06T03:53:52.934Z,12.23
2017-07-06T03:56:21.217Z,14.90
2017-07-06T03:58:50.276Z,13.43
2017-07-06T04:01:18.552Z,16.23
2017-07-06T04:03:46.844Z,13.23
2017-07-06T04:06:15.143Z,13.15
2017-07-06T04:08:44.199Z,17.62
2017-07-06T04:11:12.492Z,13.10
2017-07-06T04:13:40.803Z,13.62
2017-07-06T04:16:09.856Z,11.32
2017-07-06T04:18:38.131Z,14.32
2017-07-06T04:21:07.012Z,12.55
2017-07-06T04:23:35.295Z,11.05
2017-07-06T04:26:03.575Z,13.77
2017-07-06T04:28:31.895Z,17.17
2017-07-06T04:31:00.944Z,13.05
2017-07-06T04:33:29.245Z,11.00
2017-07-06T04:35:57.538Z,14.27
2017-07-06T04:38:26.668Z,13.57
2017-07-06T04:40:54.943Z,16.58
2017-07-06T04:43:23.251Z,12.80
2017-07-06T04:45:51.529Z,15.65
2017-07-06T04:48:19.803Z,14.57
2017-07-06T04:50:48.103Z,12.52
2017-07-06T04:53:16.392Z,14.35
2017-07-06T04:55:45.452Z,13.32
2017-07-06T04:58:13.729Z,13.35
2017-07-06T05:00:42.040Z,11.50
2017-07-06T05:03:11.086Z,14.52
2017-07-06T05:05:39.375Z,14.07
2017-07-06T05:08:07.650Z,9.95
2017-07-06T05:10:35.931Z,9.55
2017-07-06T05:13:04.200Z,11.77
2017-07-06T05:15:32.486Z,12.52
2017-07-06T05:18:00.774Z,9.57
2017-07-06T05:20:29.047Z,7.57
2017-07-06T05:22:57.360Z,10.55
2017-07-06T05:25:25.634Z,10.00
2017-07-06T05:27:53.959Z,14.20
2017-07-06T05:30:22.239Z,9.52
2017-07-06T05:32:50.560Z,8.98
2017-07-06T05:35:19.227Z,8.20
2017-07-06T05:37:47.532Z,8.20
2017-07-06T05:40:16.567Z,7.37
2017-07-06T05:42:44.847Z,7.90
2017-07-06T05:45:13.144Z,11.43
2017-07-06T05:47:41.415Z,7.80
2017-07-06T05:50:09.711Z,8.43
2017-07-06T05:52:37.984Z,8.77
2017-07-06T05:55:06.275Z,10.80
2017-07-06T05:57:34.554Z,13.50
2017-07-06T06:00:02.841Z,7.17
2017-07-06T06:02:31.887Z,14.60
2017-07-06T06:05:00.200Z,9.07
2017-07-06T06:07:28.467Z,7.70
2017-07-06T06:09:56.743Z,10.30
2017-07-06T06:12:25.038Z,8.83
2017-07-06T06:14:53.310Z,8.20
2017-07-06T06:17:21.596Z,10.27
2017-07-06T06:19:50.640Z,8.37
2017-07-06T06:22:18.931Z,6.97
2017-07-06T06:24:47.199Z,12.00
2017-07-06T06:27:15.503Z,11.17
2017-07-06T06:29:43.776Z,8.93
2017-07-06T06:32:12.080Z,8.07
2017-07-06T06:34:41.127Z,11.17
2017-07-06T06:37:09.391Z,8.63
2017-07-06T06:39:37.675Z,8.20
2017-07-06T06:42:06.775Z,8.53
2017-07-06T06:44:35.068Z,10.77
2017-07-06T06:47:03.354Z,12.03
2017-07-06T06:49:31.646Z,7.93
2017-07-06T06:51:59.915Z,8.00
2017-07-06T06:54:28.211Z,11.60
2017-07-06T06:56:57.254Z,10.07
2017-07-06T06:59:25.547Z,8.37
2017-07-06T07:01:53.816Z,13.33
2017-07-06T07:04:22.860Z,15.20
2017-07-06T07:06:51.924Z,6.83
2017-07-06T07:09:20.205Z,14.73
2017-07-06T07:11:48.496Z,8.77
2017-07-06T07:14:16.768Z,9.30
2017-07-06T07:16:45.059Z,13.43
2017-07-06T07:19:14.145Z,6.17
2017-07-06T07:21:42.422Z,7.53
2017-07-06T07:24:10.714Z,13.90
2017-07-06T07:26:39.799Z,6.40
2017-07-06T07:29:08.083Z,8.03
2017-07-06T07:31:37.123Z,8.17
2017-07-06T07:34:05.413Z,6.30
2017-07-06T07:36:33.696Z,7.43
2017-07-06T07:39:01.979Z,8.07
2017-07-06T07:41:30.260Z,14.00
2017-07-06T07:43:58.582Z,9.53
2017-07-06T07:46:27.603Z,8.00
2017-07-06T07:48:55.887Z,6.53
2017-07-06T07:51:24.161Z,9.13
2017-07-06T07:53:52.475Z,8.90
2017-07-06T07:56:20.756Z,8.47
2017-07-06T07:58:49.019Z,9.03
2017-07-06T08:01:17.303Z,7.20
2017-07-06T08:03:45.580Z,7.50
2017-07-06T08:06:13.879Z,6.50
2017-07-06T08:08:42.915Z,9.13
2017-07-06T08:11:11.207Z,7.90
2017-07-06T08:13:39.481Z,10.27
2017-07-06T08:16:07.768Z,7.57
2017-07-06T08:18:36.035Z,8.80
2017-07-06T08:21:04.339Z,8.23
2017-07-06T08:23:32.615Z,7.17
2017-07-06T08:26:00.885Z,11.07
2017-07-06T08:28:29.216Z,8.97
2017-07-06T08:30:57.495Z,10.10
2017-07-06T08:33:25.779Z,5.97
2017-07-06T08:35:54.055Z,5.80
2017-07-06T08:38:22.351Z,6.50
2017-07-06T08:40:50.615Z,7.20
2017-07-06T08:43:18.916Z,6.70
2017-07-06T08:45:47.196Z,8.73
2017-07-06T08:48:15.501Z,16.33
2017-07-06T08:50:44.549Z,7.23
2017-07-06T08:53:12.831Z,8.67
2017-07-06T08:55:41.126Z,15.00
2017-07-06T08:58:09.394Z,5.90
2017-07-06T09:00:37.683Z,6.27
2017-07-06T09:03:05.952Z,9.73
2017-07-06T09:05:34.234Z,8.93
2017-07-06T09:08:02.508Z,9.77
2017-07-06T09:10:30.783Z,5.70
2017-07-06T09:12:59.054Z,7.10
2017-07-06T09:15:27.365Z,6.20
2017-07-06T09:17:55.640Z,5.17
2017-07-06T09:20:23.911Z,6.50
2017-07-06T09:22:52.195Z,8.60
2017-07-06T09:25:20.486Z,8.43
2017-07-06T09:27:48.779Z,7.50
2017-07-06T09:30:17.048Z,6.00
2017-07-06T09:32:45.352Z,8.10
2017-07-06T09:35:13.615Z,5.17
2017-07-06T09:37:41.912Z,9.40
2017-07-06T09:40:10.187Z,7.47
2017-07-06T09:42:38.494Z,5.33
2017-07-06T09:45:06.764Z,5.03
2017-07-06T09:47:35.049Z,5.10
2017-07-06T09:50:03.344Z,6.30
2017-07-06T09:52:31.616Z,5.17
2017-07-06T09:54:59.930Z,5.63
2017-07-06T09:57:28.963Z,4.60
2017-07-06T09:59:57.252Z,7.43
2017-07-06T10:02:25.520Z,4.53
2017-07-06T10:04:53.845Z,4.57
2017-07-06T10:07:22.103Z,5.77
2017-07-06T10:09:50.390Z,4.80
2017-07-06T10:12:19.428Z,15.70
2017-07-06T10:14:47.731Z,4.90
2017-07-06T10:17:16.022Z,4.60
2017-07-06T10:19:44.287Z,4.37
2017-07-06T10:22:12.576Z,4.30
2017-07-06T10:24:40.857Z,6.03
2017-07-06T10:27:09.144Z,5.20
2017-07-06T10:29:37.420Z,3.70
2017-07-06T10:32:05.708Z,4.67
2017-07-06T10:34:34.749Z,5.87
2017-07-06T10:37:03.039Z,4.90
2017-07-06T10:39:31.322Z,4.93
2017-07-06T10:41:59.635Z,4.87
2017-07-06T10:44:28.147Z,4.77
2017-07-06T10:46:56.400Z,4.13
2017-07-06T10:49:25.471Z,5.57
2017-07-06T10:51:53.737Z,4.83
2017-07-06T10:54:22.016Z,5.53
2017-07-06T10:56:50.287Z,5.53
2017-07-06T10:59:18.568Z,6.73
2017-07-06T11:01:46.853Z,6.50
2017-07-06T11:04:15.940Z,7.00
2017-07-06T11:06:44.211Z,4.27
2017-07-06T11:09:12.480Z,4.83
2017-07-06T11:11:40.770Z,5.20
2017-07-06T11:14:09.055Z,4.87
2017-07-06T11:16:37.340Z,7.23
2017-07-06T11:19:05.606Z,8.20
2017-07-06T11:21:33.892Z,5.00
2017-07-06T11:24:02.175Z,6.60
2017-07-06T11:26:30.483Z,5.23
2017-07-06T11:28:58.761Z,6.00
2017-07-06T11:31:27.027Z,7.43
2017-07-06T11:33:55.312Z,6.80
2017-07-06T11:36:23.588Z,5.13
2017-07-06T11:38:51.875Z,4.87
2017-07-06T11:41:20.134Z,4.60
2017-07-06T11:43:48.430Z,5.33
2017-07-06T11:46:16.707Z,4.00
2017-07-06T11:48:45.003Z,4.80
2017-07-06T11:51:13.268Z,5.90
2017-07-06T11:53:41.563Z,4.33
2017-07-06T11:56:09.839Z,7.17
2017-07-06T11:58:38.106Z,4.93
2017-07-06T12:01:07.321Z,7.77
2017-07-06T12:03:35.589Z,4.67
2017-07-06T12:06:03.875Z,4.57
2017-07-06T12:08:32.143Z,4.30
2017-07-06T12:11:00.426Z,5.27
2017-07-06T12:13:28.709Z,4.37
2017-07-06T12:15:57.010Z,4.70
2017-07-06T12:18:25.270Z,6.87
2017-07-06T12:20:53.552Z,7.40
2017-07-06T12:23:21.818Z,6.60
2017-07-06T12:25:50.079Z,4.27
2017-07-06T12:28:18.370Z,5.70
2017-07-06T12:30:46.639Z,4.47
2017-07-06T12:33:14.921Z,4.30
2017-07-06T12:35:43.194Z,6.20
2017-07-06T12:38:11.475Z,5.70
2017-07-06T12:40:39.744Z,8.90
2017-07-06T12:43:08.031Z,4.90
2017-07-06T12:45:36.303Z,4.80
2017-07-06T12:48:04.591Z,5.63
2017-07-06T12:50:32.876Z,4.43
2017-07-06T12:53:01.135Z,4.20
2017-07-06T12:55:29.415Z,6.00
2017-07-06T12:57:57.706Z,4.37
2017-07-06T13:00:26.088Z,7.83
2017-07-06T13:02:54.387Z,5.57
2017-07-06T13:05:23.439Z,4.00
2017-07-06T13:07:51.711Z,5.73
2017-07-06T13:10:20.011Z,4.33
2017-07-06T13:12:48.301Z,4.90
2017-07-06T13:15:17.352Z,3.67
2017-07-06T13:17:45.640Z,4.50
2017-07-06T13:20:13.908Z,5.67
2017-07-06T13:22:42.191Z,5.50
2017-07-06T13:25:10.463Z,4.23
2017-07-06T13:27:38.752Z,7.43
2017-07-06T13:30:07.019Z,5.20
2017-07-06T13:32:35.304Z,8.23
2017-07-06T13:35:03.575Z,5.37
2017-07-06T13:37:31.860Z,4.93
2017-07-06T13:40:00.131Z,6.80
2017-07-06T13:42:28.396Z,7.30
2017-07-06T13:44:56.710Z,16.27
2017-07-06T13:47:24.984Z,10.80
2017-07-06T13:49:53.271Z,5.57
2017-07-06T13:52:21.590Z,6.33
2017-07-06T13:54:49.827Z,5.70
2017-07-06T13:57:18.109Z,10.20
2017-07-06T13:59:46.412Z,13.13
2017-07-06T14:02:14.685Z,9.87
2017-07-06T14:04:43.739Z,12.20
2017-07-06T14:07:12.015Z,12.87
2017-07-06T14:09:40.324Z,7.43
2017-07-06T14:12:08.587Z,8.17
2017-07-06T14:14:36.852Z,4.53
2017-07-06T14:17:05.136Z,19.23
2017-07-06T14:19:33.414Z,7.20
2017-07-06T14:22:01.700Z,9.57
2017-07-06T14:24:30.009Z,6.20
2017-07-06T14:26:59.047Z,5.60
2017-07-06T14:29:27.316Z,6.50
2017-07-06T14:31:55.601Z,5.27
2017-07-06T14:34:23.884Z,5.20
2017-07-06T14:36:52.159Z,4.80
2017-07-06T14:39:20.423Z,4.20
2017-07-06T14:41:48.704Z,4.37
2017-07-06T14:44:16.972Z,4.70
2017-07-06T14:46:45.244Z,4.83
2017-07-06T14:49:13.527Z,6.03
2017-07-06T14:51:41.820Z,4.57
2017-07-06T14:54:10.094Z,6.27
2017-07-06T14:56:38.378Z,5.03
2017-07-06T14:59:06.650Z,4.50
2017-07-06T15:01:34.952Z,5.17
2017-07-06T15:04:03.235Z,4.27
2017-07-06T15:06:31.501Z,3.83
2017-07-06T15:08:59.790Z,4.50
2017-07-06T15:11:28.049Z,4.43
2017-07-06T15:13:56.342Z,5.47
2017-07-06T15:16:24.613Z,5.63
2017-07-06T15:18:52.876Z,9.57
2017-07-06T15:21:21.160Z,7.07
2017-07-06T15:23:49.428Z,4.03
2017-07-06T15:26:17.716Z,6.50
2017-07-06T15:28:45.990Z,5.77
2017-07-06T15:31:14.269Z,4.30
2017-07-06T15:33:42.534Z,9.83
2017-07-06T15:36:10.820Z,5.67
2017-07-06T15:38:39.091Z,5.57
2017-07-06T15:41:07.699Z,4.60
2017-07-06T15:43:36.736Z,8.80
2017-07-06T15:46:05.020Z,6.97
2017-07-06T15:48:33.299Z,3.90
2017-07-06T15:51:01.585Z,5.77
2017-07-06T15:53:29.861Z,3.43
2017-07-06T15:55:58.133Z,4.83
2017-07-06T15:58:26.420Z,3.53
2017-07-06T16:00:54.679Z,3.03
2017-07-06T16:03:22.972Z,3.50
2017-07-06T16:05:51.235Z,3.10
2017-07-06T16:08:19.523Z,7.23
2017-07-06T16:10:47.783Z,3.10
2017-07-06T16:13:16.116Z,5.43
2017-07-06T16:15:44.339Z,3.23
2017-07-06T16:18:12.640Z,5.40
2017-07-06T16:20:40.944Z,4.20
2017-07-06T16:23:09.230Z,5.23
2017-07-06T16:25:38.289Z,4.10
2017-07-06T16:28:06.547Z,3.07
2017-07-06T16:30:34.841Z,3.10
2017-07-06T16:33:03.112Z,2.87
2017-07-06T16:35:31.395Z,7.33
2017-07-06T16:37:59.658Z,3.47
2017-07-06T16:40:27.942Z,3.27
2017-07-06T16:42:56.209Z,5.43
2017-07-06T16:45:24.495Z,4.20
2017-07-06T16:47:52.759Z,3.20
2017-07-06T16:50:21.047Z,3.87
2017-07-06T16:52:49.308Z,3.10
2017-07-06T16:55:17.578Z,2.77
2017-07-06T16:57:45.863Z,4.03
2017-07-06T17:00:14.133Z,3.30
2017-07-06T17:02:42.406Z,6.47
2017-07-06T17:05:10.681Z,3.33
2017-07-06T17:07:38.974Z,4.63
2017-07-06T17:10:07.240Z,6.27
2017-07-06T17:12:35.531Z,3.70
2017-07-06T17:15:03.811Z,6.50
2017-07-06T17:17:32.103Z,5.23
2017-07-06T17:20:00.376Z,4.57
2017-07-06T17:22:28.663Z,3.87
2017-07-06T17:24:56.922Z,4.30
2017-07-06T17:27:25.187Z,6.57
2017-07-06T17:29:53.471Z,4.17
2017-07-06T17:32:21.736Z,7.00
2017-07-06T17:34:50.019Z,4.07
2017-07-06T17:37:18.294Z,6.60
2017-07-06T17:39:46.589Z,4.13
2017-07-06T17:42:14.855Z,4.73
2017-07-06T17:44:43.136Z,3.97
2017-07-06T17:47:11.400Z,5.00
2017-07-06T17:49:39.678Z,3.10
2017-07-06T17:52:07.947Z,4.13
2017-07-06T17:54:36.274Z,6.73
2017-07-06T17:57:04.547Z,3.60
2017-07-06T17:59:32.831Z,3.77
2017-07-06T18:02:01.120Z,5.10
2017-07-06T18:04:29.403Z,5.43
2017-07-06T18:06:58.452Z,3.90
2017-07-06T18:09:26.723Z,4.13
2017-07-06T18:11:55.011Z,4.80
2017-07-06T18:14:23.332Z,6.20
2017-07-06T18:16:52.391Z,4.43
2017-07-06T18:19:20.688Z,3.27
2017-07-06T18:21:48.967Z,4.83
2017-07-06T18:24:17.374Z,5.10
2017-07-06T18:26:46.475Z,5.03
2017-07-06T18:29:14.772Z,7.40
2017-07-06T18:31:43.030Z,4.50
2017-07-06T18:34:11.315Z,4.03
2017-07-06T18:36:39.583Z,4.60
2017-07-06T18:39:07.871Z,6.33
2017-07-06T18:41:36.179Z,4.23
2017-07-06T18:44:04.471Z,8.43
2017-07-06T18:46:32.744Z,5.37
2017-07-06T18:49:01.055Z,6.20
2017-07-06T18:51:30.523Z,6.40
2017-07-06T18:53:58.818Z,4.77
2017-07-06T18:56:27.091Z,11.60
2017-07-06T18:58:55.400Z,9.40
2017-07-06T19:01:24.457Z,6.53
2017-07-06T19:03:52.787Z,6.73
2017-07-06T19:06:21.071Z,6.10
2017-07-06T19:08:49.340Z,10.03
2017-07-06T19:11:17.615Z,6.23
2017-07-06T19:13:45.875Z,8.33
2017-07-06T19:16:14.953Z,8.43
2017-07-06T19:18:43.220Z,10.40
2017-07-06T19:21:11.500Z,7.07
2017-07-06T19:23:39.778Z,6.57
2017-07-06T19:26:08.075Z,7.57
2017-07-06T19:28:36.360Z,9.23
2017-07-06T19:31:04.685Z,13.03
2017-07-06T19:33:33.954Z,7.30
2017-07-06T19:36:02.221Z,7.27
2017-07-06T19:38:30.517Z,8.53
2017-07-06T19:40:58.930Z,10.03
2017-07-06T19:43:27.205Z,5.50
2017-07-06T19:45:55.473Z,6.10
2017-07-06T19:48:23.772Z,6.33
2017-07-06T19:50:52.036Z,6.87
2017-07-06T19:53:20.337Z,9.30
2017-07-06T19:55:48.613Z,9.57
2017-07-06T19:58:17.669Z,8.20
2017-07-06T20:00:45.952Z,6.83
2017-07-06T20:03:14.248Z,6.60
2017-07-06T20:05:42.532Z,9.40
2017-07-06T20:08:10.852Z,6.60
2017-07-06T20:10:39.131Z,7.53
2017-07-06T20:13:07.402Z,6.83
2017-07-06T20:15:35.684Z,6.60
2017-07-06T20:18:03.961Z,6.70
2017-07-06T20:20:32.271Z,9.70
2017-07-06T20:23:00.554Z,9.60
2017-07-06T20:25:28.843Z,7.18
2017-07-06T20:27:57.143Z,9.55
2017-07-06T20:30:26.200Z,8.32
2017-07-06T20:32:54.478Z,8.80
2017-07-06T20:35:22.779Z,9.90
2017-07-06T20:37:51.060Z,10.35
2017-07-06T20:40:19.374Z,10.60
2017-07-06T20:42:47.651Z,6.65
2017-07-06T20:45:15.928Z,8.82
2017-07-06T20:47:44.223Z,6.07
2017-07-06T20:50:12.499Z,8.00
2017-07-06T20:52:40.786Z,6.85
2017-07-06T20:55:09.064Z,8.00
2017-07-06T20:57:37.351Z,8.65
2017-07-06T21:00:05.626Z,7.65
2017-07-06T21:02:33.919Z,13.13
2017-07-06T21:05:02.264Z,4.85
2017-07-06T21:07:30.604Z,6.43
2017-07-06T21:09:59.700Z,6.12
2017-07-06T21:12:28.820Z,6.05
2017-07-06T21:14:57.091Z,5.87
2017-07-06T21:17:25.407Z,7.32
2017-07-06T21:19:53.774Z,5.37
2017-07-06T21:22:22.034Z,9.32
2017-07-06T21:24:50.319Z,7.90
2017-07-06T21:27:18.590Z,6.25
2017-07-06T21:29:46.891Z,9.70
2017-07-06T21:32:15.169Z,5.43
2017-07-06T21:34:43.467Z,6.75
2017-07-06T21:37:11.736Z,7.15
2017-07-06T21:39:40.048Z,6.40
2017-07-06T21:42:08.319Z,7.50
2017-07-06T21:44:36.594Z,4.82
2017-07-06T21:47:05.653Z,5.45
2017-07-06T21:49:33.919Z,5.57
2017-07-06T21:52:02.279Z,5.15
2017-07-06T21:54:30.556Z,4.95
2017-07-06T21:56:58.841Z,6.85
2017-07-06T21:59:27.121Z,6.97
2017-07-06T22:01:55.415Z,6.32
2017-07-06T22:04:23.699Z,7.37
2017-07-06T22:06:51.992Z,5.37
2017-07-06T22:09:20.269Z,11.25
2017-07-06T22:11:48.544Z,6.18
2017-07-06T22:14:16.831Z,7.82
2017-07-06T22:16:45.115Z,7.70
2017-07-06T22:19:13.403Z,6.40
2017-07-06T22:21:41.706Z,7.20
2017-07-06T22:24:09.990Z,7.55
2017-07-06T22:26:38.258Z,5.50
2017-07-06T22:29:06.552Z,6.07
2017-07-06T22:31:34.832Z,6.22
2017-07-06T22:34:03.141Z,8.23
2017-07-06T22:36:31.408Z,8.02
2017-07-06T22:38:59.690Z,6.53
2017-07-06T22:41:27.975Z,9.30
2017-07-06T22:43:56.251Z,5.82
2017-07-06T22:46:24.554Z,7.10
2017-07-06T22:48:53.584Z,5.62
2017-07-06T22:51:21.881Z,6.15
2017-07-06T22:53:50.143Z,8.80
2017-07-06T22:56:18.433Z,6.97
2017-07-06T22:58:46.705Z,5.70
2017-07-06T23:01:14.996Z,8.20
2017-07-06T23:03:43.260Z,7.10
2017-07-06T23:06:11.540Z,7.72
2017-07-06T23:08:39.829Z,6.00
2017-07-06T23:11:08.104Z,7.12
2017-07-06T23:13:36.394Z,5.20
2017-07-06T23:16:04.659Z,6.68
2017-07-06T23:18:32.943Z,8.02
2017-07-06T23:21:01.217Z,6.37
2017-07-06T23:23:29.504Z,13.00
2017-07-06T23:25:57.781Z,6.30
2017-07-06T23:28:26.077Z,6.00
2017-07-06T23:30:55.129Z,11.25
2017-07-06T23:33:23.409Z,7.60
2017-07-06T23:35:51.681Z,8.13
2017-07-06T23:38:19.956Z,6.78
2017-07-06T23:40:48.255Z,10.60
2017-07-06T23:43:16.534Z,7.03
2017-07-06T23:45:44.824Z,7.72
2017-07-06T23:48:13.092Z,7.55
2017-07-06T23:50:41.375Z,7.47
2017-07-06T23:53:10.423Z,8.13
2017-07-06T23:55:38.727Z,7.43
2017-07-06T23:58:06.995Z,8.73
